Time;durP1;ratioP1;P1;durP2;ratioP2;P2;SDS_P1;SDS_P2;PMS_P1;PMS_P2;Temp;Humidity;BMP_temperature;BMP_pressure;BME280_temperature;BME280_humidity;BME280_pressure;Samples;Min_cycle;Max_cycle;Signal;HPM_P1;HPM_P2
2024/01/08 00:00:21;;;;;;;20.43;7.73;;;-7.80;99.90;;;;;;4440195;28;656533;-74
2024/01/08 00:03:08;;;;;;;11.88;4.22;;;-7.80;99.90;;;;;;4431425;28;657223;-74
2024/01/08 00:05:56;;;;;;;16.43;6.03;;;-7.80;99.90;;;;;;4447281;28;657621;-74
2024/01/08 00:08:43;;;;;;;17.07;5.40;;;-7.80;99.90;;;;;;4426587;28;656736;-74
2024/01/08 00:11:30;;;;;;;19.77;7.70;;;-7.80;99.90;;;;;;4446332;28;657620;-75
2024/01/08 00:14:19;;;;;;;17.73;7.50;;;-7.80;99.90;;;;;;4430551;28;656809;-73
2024/01/08 00:17:06;;;;;;;20.17;5.97;;;-7.90;99.90;;;;;;4446092;28;656781;-74
2024/01/08 00:19:53;;;;;;;11.40;4.77;;;-7.90;99.90;;;;;;4427831;28;656563;-74
2024/01/08 00:22:40;;;;;;;16.90;6.45;;;-8.00;99.90;;;;;;4440614;28;657429;-74
2024/01/08 00:25:28;;;;;;;20.17;7.80;;;-8.00;99.90;;;;;;4422870;28;656478;-73
2024/01/08 00:28:15;;;;;;;19.27;7.80;;;-8.00;99.90;;;;;;4443606;28;657131;-72
2024/01/08 00:31:04;;;;;;;21.70;7.60;;;-8.00;99.90;;;;;;4442679;28;656939;-73
2024/01/08 00:33:51;;;;;;;13.40;5.83;;;-8.00;99.90;;;;;;4449816;28;656715;-75
2024/01/08 00:36:38;;;;;;;18.70;5.80;;;-8.00;99.90;;;;;;4429059;28;656825;-73
2024/01/08 00:39:27;;;;;;;21.17;8.27;;;-8.00;99.90;;;;;;4445851;28;657153;-73
2024/01/08 00:42:14;;;;;;;23.93;8.73;;;-8.00;99.90;;;;;;4427669;28;656558;-74
2024/01/08 00:45:01;;;;;;;22.00;6.77;;;-8.00;99.90;;;;;;4444166;28;657274;-74
2024/01/08 00:47:50;;;;;;;22.17;7.83;;;-8.10;99.90;;;;;;4423746;28;656536;-74
2024/01/08 00:50:37;;;;;;;26.97;9.13;;;-8.10;99.90;;;;;;4429305;28;656483;-73
2024/01/08 00:53:25;;;;;;;20.17;7.90;;;-8.10;99.90;;;;;;4447747;28;657526;-74
2024/01/08 00:56:13;;;;;;;19.83;6.27;;;-8.10;99.90;;;;;;4438649;28;657822;-74
2024/01/08 00:59:00;;;;;;;10.63;4.03;;;-8.10;99.90;;;;;;4417985;28;659326;-74
2024/01/08 01:01:48;;;;;;;17.43;6.00;;;-8.10;99.90;;;;;;4424547;28;657841;-74
2024/01/08 01:04:36;;;;;;;16.90;7.23;;;-8.10;99.90;;;;;;4447667;28;658716;-74
2024/01/08 01:07:23;;;;;;;13.80;5.63;;;-8.10;99.90;;;;;;4429182;28;657538;-74
2024/01/08 01:10:11;;;;;;;16.50;5.28;;;-8.20;99.90;;;;;;4432311;28;658435;-74
2024/01/08 01:12:58;;;;;;;10.23;4.63;;;-8.20;99.90;;;;;;4426282;28;657975;-73
2024/01/08 01:15:45;;;;;;;9.83;3.57;;;-8.30;99.90;;;;;;4443838;28;658356;-73
2024/01/08 01:18:33;;;;;;;11.40;3.43;;;-8.30;99.90;;;;;;4416844;28;657273;-73
2024/01/08 01:21:22;;;;;;;12.30;5.53;;;-8.30;99.90;;;;;;4447446;28;658857;-74
2024/01/08 01:24:09;;;;;;;19.87;7.10;;;-8.40;99.90;;;;;;4417126;28;658043;-73
2024/01/08 01:26:56;;;;;;;15.33;5.30;;;-8.40;99.90;;;;;;4446020;28;657725;-74
2024/01/08 01:29:43;;;;;;;19.13;6.90;;;-8.40;99.90;;;;;;4417387;28;657392;-73
2024/01/08 01:32:31;;;;;;;23.83;7.77;;;-8.40;99.90;;;;;;4435527;28;659273;-73
2024/01/08 01:35:18;;;;;;;15.70;5.97;;;-8.40;99.90;;;;;;4420447;28;657466;-73
2024/01/08 01:38:06;;;;;;;25.23;7.00;;;-8.40;99.90;;;;;;4448856;28;657615;-74
2024/01/08 01:40:53;;;;;;;25.02;7.60;;;-8.30;99.90;;;;;;4420669;28;657715;-74
2024/01/08 01:43:41;;;;;;;15.40;4.70;;;-8.30;99.90;;;;;;4442493;28;658585;-74
2024/01/08 01:46:35;;;;;;;15.67;7.07;;;-8.30;99.90;;;;;;4419664;28;658224;-73
2024/01/08 01:49:22;;;;;;;0.57;0.57;;;-8.30;99.90;;;;;;4438291;28;657708;-73
2024/01/08 01:52:10;;;;;;;3.97;1.73;;;-8.30;99.90;;;;;;4444520;28;656942;-74
2024/01/08 01:54:58;;;;;;;11.40;4.30;;;-8.30;99.90;;;;;;4440696;28;656252;-74
2024/01/08 01:57:45;;;;;;;13.00;4.63;;;-8.30;99.90;;;;;;4421287;28;658763;-73
2024/01/08 02:00:32;;;;;;;13.32;5.53;;;-8.40;99.90;;;;;;4417595;28;658519;-73
2024/01/08 02:03:20;;;;;;;10.77;4.63;;;-8.40;99.90;;;;;;4441820;28;659418;-74
2024/01/08 02:06:09;;;;;;;16.10;5.77;;;-8.40;99.90;;;;;;4451039;28;657331;-73
2024/01/08 02:08:57;;;;;;;29.47;8.87;;;-8.40;99.90;;;;;;4446502;28;657859;-74
2024/01/08 02:11:45;;;;;;;20.63;5.67;;;-8.50;99.90;;;;;;4422623;28;658603;-74
2024/01/08 02:14:32;;;;;;;21.77;8.07;;;-8.60;99.90;;;;;;4422948;28;657741;-72
2024/01/08 02:17:20;;;;;;;14.10;5.47;;;-8.60;99.90;;;;;;4441467;28;658637;-74
2024/01/08 02:20:09;;;;;;;20.77;6.47;;;-8.50;99.90;;;;;;4411891;28;658362;-73
2024/01/08 02:22:58;;;;;;;24.77;7.67;;;-8.50;99.90;;;;;;4441372;28;657433;-74
2024/01/08 02:25:45;;;;;;;22.77;7.30;;;-8.50;99.90;;;;;;4408782;28;657830;-74
2024/01/08 02:28:32;;;;;;;22.90;7.95;;;-8.60;99.90;;;;;;4427991;28;658400;-73
2024/01/08 02:31:20;;;;;;;10.30;4.67;;;-8.60;99.90;;;;;;4439327;28;657743;-73
2024/01/08 02:34:07;;;;;;;17.75;6.45;;;-8.60;99.90;;;;;;4423365;28;658380;-73
2024/01/08 02:36:55;;;;;;;12.17;4.57;;;-8.60;99.90;;;;;;4442096;28;659037;-73
2024/01/08 02:39:43;;;;;;;19.20;6.27;;;-8.70;99.90;;;;;;4448272;28;658188;-74
2024/01/08 02:42:30;;;;;;;21.83;7.83;;;-8.70;99.90;;;;;;4411833;28;658183;-74
2024/01/08 02:45:17;;;;;;;17.02;7.05;;;-8.80;99.90;;;;;;4422431;28;658620;-73
2024/01/08 02:48:05;;;;;;;8.47;2.90;;;-8.80;99.90;;;;;;4432851;28;658480;-73
2024/01/08 02:50:52;;;;;;;24.10;7.87;;;-8.90;99.90;;;;;;4410506;28;656273;-73
2024/01/08 02:53:40;;;;;;;15.30;4.30;;;-8.90;99.90;;;;;;4436532;28;658500;-74
2024/01/08 02:56:28;;;;;;;19.40;6.90;;;-9.00;99.90;;;;;;4418016;28;658415;-74
2024/01/08 02:59:15;;;;;;;14.17;6.20;;;-9.00;99.90;;;;;;4408669;28;657662;-74
2024/01/08 03:02:03;;;;;;;20.55;7.50;;;-8.90;99.90;;;;;;4412802;28;658044;-73
2024/01/08 03:04:50;;;;;;;19.43;7.47;;;-8.90;99.90;;;;;;4427662;28;657786;-75
2024/01/08 03:07:37;;;;;;;8.73;4.20;;;-8.90;99.90;;;;;;4436334;28;657751;-73
2024/01/08 03:10:24;;;;;;;6.20;2.63;;;-8.90;99.90;;;;;;4427299;28;657029;-74
2024/01/08 03:13:13;;;;;;;17.20;6.80;;;-9.00;99.90;;;;;;4442680;28;656533;-74
2024/01/08 03:16:01;;;;;;;16.63;7.07;;;-9.00;99.90;;;;;;4417869;28;659126;-73
2024/01/08 03:18:48;;;;;;;11.73;4.17;;;-9.00;99.90;;;;;;4423386;28;657794;-73
2024/01/08 03:21:35;;;;;;;17.73;6.47;;;-9.00;99.90;;;;;;4444326;28;657897;-74
2024/01/08 03:24:23;;;;;;;17.17;6.30;;;-9.10;99.90;;;;;;4420397;28;658223;-74
2024/01/08 03:27:10;;;;;;;22.00;8.03;;;-9.10;99.90;;;;;;4441253;28;658196;-74
2024/01/08 03:29:59;;;;;;;17.73;6.47;;;-9.20;99.90;;;;;;4445682;28;658211;-73
2024/01/08 03:32:46;;;;;;;19.23;7.77;;;-9.20;99.90;;;;;;4439459;28;657977;-74
2024/01/08 03:35:33;;;;;;;20.13;7.63;;;-9.20;99.90;;;;;;4425359;28;657797;-74
2024/01/08 03:38:20;;;;;;;15.33;5.70;;;-9.20;99.90;;;;;;4438816;28;657645;-74
2024/01/08 03:41:07;;;;;;;17.10;5.63;;;-9.20;99.90;;;;;;4423916;28;657868;-73
2024/01/08 03:43:55;;;;;;;20.60;6.73;;;-9.20;99.90;;;;;;4445071;28;658043;-74
2024/01/08 03:46:43;;;;;;;12.67;4.63;;;-9.20;99.90;;;;;;4445573;28;657796;-74
2024/01/08 03:49:30;;;;;;;20.00;6.90;;;-9.20;99.90;;;;;;4418443;28;658222;-74
2024/01/08 03:52:18;;;;;;;22.43;7.83;;;-9.10;99.90;;;;;;4427033;28;657970;-73
2024/01/08 03:55:06;;;;;;;24.23;4.73;;;-9.20;99.90;;;;;;4445068;28;659207;-74
2024/01/08 03:57:54;;;;;;;26.57;7.97;;;-9.10;99.90;;;;;;4421670;28;657927;-73
2024/01/08 04:00:41;;;;;;;14.43;5.67;;;-9.10;99.90;;;;;;4440208;28;658172;-74
2024/01/08 04:03:29;;;;;;;20.30;6.43;;;-9.20;99.90;;;;;;4429021;28;657963;-74
2024/01/08 04:06:17;;;;;;;21.60;7.47;;;-9.20;99.90;;;;;;4439175;28;658758;-74
2024/01/08 04:09:04;;;;;;;28.27;9.60;;;-9.20;99.90;;;;;;4422906;28;658649;-74
2024/01/08 04:11:51;;;;;;;19.88;7.05;;;-9.20;99.90;;;;;;4450534;28;657209;-74
2024/01/08 04:14:39;;;;;;;24.73;5.27;;;-9.20;99.90;;;;;;4414959;28;658232;-73
2024/01/08 04:17:27;;;;;;;16.43;6.03;;;-9.20;99.90;;;;;;4429857;28;658103;-74
2024/01/08 04:20:16;;;;;;;22.93;8.23;;;-9.20;99.90;;;;;;4394180;28;658250;-74
2024/01/08 04:23:04;;;;;;;20.23;8.23;;;-9.30;99.90;;;;;;4405544;28;658394;-74
2024/01/08 04:25:51;;;;;;;24.30;7.57;;;-9.30;99.90;;;;;;4429576;28;657201;-73
2024/01/08 04:28:38;;;;;;;12.93;4.40;;;-9.20;99.90;;;;;;4408435;28;657773;-73
2024/01/08 04:31:24;;;;;;;24.83;6.80;;;-9.20;99.90;;;;;;4430542;28;657633;-74
2024/01/08 04:34:12;;;;;;;22.87;6.53;;;-9.20;99.90;;;;;;4432517;28;657558;-73
2024/01/08 04:37:00;;;;;;;23.70;6.50;;;-9.30;99.90;;;;;;4403535;28;658151;-74
2024/01/08 04:39:48;;;;;;;26.93;8.70;;;-9.30;99.90;;;;;;4409688;28;658183;-73
2024/01/08 04:42:35;;;;;;;22.27;6.77;;;-9.30;99.90;;;;;;4432948;28;659100;-74
2024/01/08 04:45:22;;;;;;;16.77;5.07;;;-9.30;99.90;;;;;;4409239;28;658106;-73
2024/01/08 04:48:10;;;;;;;27.43;8.80;;;-9.30;99.90;;;;;;4424544;28;658436;-73
2024/01/08 04:50:57;;;;;;;21.13;8.47;;;-9.40;99.90;;;;;;4426030;28;657425;-74
2024/01/08 04:53:45;;;;;;;19.80;6.90;;;-9.40;99.90;;;;;;4406935;28;657772;-74
2024/01/08 04:56:32;;;;;;;14.65;6.05;;;-9.40;99.90;;;;;;4399336;28;658261;-73
2024/01/08 04:59:21;;;;;;;23.83;10.07;;;-9.40;99.90;;;;;;4429829;28;658575;-74
2024/01/08 05:02:09;;;;;;;23.77;8.07;;;-9.40;99.90;;;;;;4410610;28;659912;-74
2024/01/08 05:04:56;;;;;;;20.60;7.43;;;-9.50;99.90;;;;;;4429790;28;658273;-73
2024/01/08 05:07:43;;;;;;;10.33;2.93;;;-9.50;99.90;;;;;;4394177;28;657771;-73
2024/01/08 05:10:32;;;;;;;15.27;6.97;;;-9.50;99.90;;;;;;4422168;28;658353;-74
2024/01/08 05:13:19;;;;;;;11.10;5.27;;;-9.60;99.90;;;;;;4412032;28;658298;-73
2024/01/08 05:16:07;;;;;;;20.37;6.57;;;-9.60;99.90;;;;;;4436347;28;657666;-74
2024/01/08 05:18:54;;;;;;;11.53;4.70;;;-9.70;99.90;;;;;;4428325;28;658588;-74
2024/01/08 05:21:41;;;;;;;17.30;7.00;;;-9.70;99.90;;;;;;4446791;28;657875;-74
2024/01/08 05:24:29;;;;;;;23.60;6.93;;;-9.80;99.90;;;;;;4413081;28;657437;-74
2024/01/08 05:27:17;;;;;;;5.83;2.90;;;-9.80;99.90;;;;;;4445316;28;657608;-74
2024/01/08 05:30:06;;;;;;;10.63;4.07;;;-9.80;99.90;;;;;;4422586;28;657517;-74
2024/01/08 05:32:53;;;;;;;10.57;3.00;;;-9.90;99.90;;;;;;4419564;28;657321;-73
2024/01/08 05:35:41;;;;;;;7.80;3.50;;;-10.00;99.90;;;;;;4445696;28;659252;-73
2024/01/08 05:38:28;;;;;;;12.73;3.97;;;-10.00;99.90;;;;;;4422052;28;657914;-73
2024/01/08 05:41:18;;;;;;;12.27;4.97;;;-10.00;99.90;;;;;;4440741;28;660000;-74
2024/01/08 05:44:08;;;;;;;12.60;5.37;;;-10.00;99.90;;;;;;4413455;28;658757;-74
2024/01/08 05:46:55;;;;;;;11.47;4.20;;;-10.00;99.90;;;;;;4418000;28;659390;-73
2024/01/08 05:49:44;;;;;;;14.77;5.47;;;-10.00;99.90;;;;;;4430434;28;658446;-73
2024/01/08 05:52:31;;;;;;;9.63;3.87;;;-10.00;99.90;;;;;;4436816;28;658435;-74
2024/01/08 05:55:18;;;;;;;18.67;6.73;;;-10.00;99.90;;;;;;4419856;28;658247;-74
2024/01/08 05:58:05;;;;;;;2.07;1.20;;;-10.00;99.90;;;;;;4447189;28;658785;-74
2024/01/08 06:00:54;;;;;;;9.33;1.73;;;-10.00;99.90;;;;;;4420611;28;658285;-73
2024/01/08 06:03:41;;;;;;;10.47;3.50;;;-10.00;99.90;;;;;;4442463;28;657877;-74
2024/01/08 06:06:28;;;;;;;9.40;5.27;;;-10.00;99.90;;;;;;4420598;28;658902;-74
2024/01/08 06:09:16;;;;;;;21.67;7.03;;;-9.90;99.90;;;;;;4441831;28;658608;-74
2024/01/08 06:12:03;;;;;;;22.33;7.27;;;-10.00;99.90;;;;;;4415302;28;657844;-74
2024/01/08 06:14:50;;;;;;;12.57;5.83;;;-10.00;99.90;;;;;;4441636;28;658937;-73
2024/01/08 06:17:39;;;;;;;12.40;5.80;;;-9.90;99.90;;;;;;4413672;28;658972;-73
2024/01/08 06:20:26;;;;;;;9.33;4.60;;;-9.80;99.90;;;;;;4444138;28;658277;-73
2024/01/08 06:23:13;;;;;;;7.33;3.77;;;-9.90;99.90;;;;;;4420705;28;656379;-73
2024/01/08 06:26:03;;;;;;;22.27;6.13;;;-9.90;99.90;;;;;;4447981;28;656563;-74
2024/01/08 06:28:50;;;;;;;20.43;6.23;;;-9.90;99.90;;;;;;4421364;28;657603;-73
2024/01/08 06:31:37;;;;;;;12.37;5.33;;;-9.90;99.90;;;;;;4423844;28;659113;-73
2024/01/08 06:34:26;;;;;;;13.77;6.53;;;-9.90;99.90;;;;;;4440439;28;657797;-73
2024/01/08 06:37:13;;;;;;;13.38;5.80;;;-9.90;99.90;;;;;;4419380;28;657564;-72
2024/01/08 06:40:00;;;;;;;14.43;5.53;;;-10.00;99.90;;;;;;4443548;28;658283;-73
2024/01/08 06:42:47;;;;;;;26.05;5.88;;;-10.00;99.90;;;;;;4423162;28;658753;-72
2024/01/08 06:45:35;;;;;;;17.70;5.50;;;-10.00;99.90;;;;;;4439112;28;659620;-73
2024/01/08 06:48:22;;;;;;;22.43;6.53;;;-10.10;99.90;;;;;;4440975;28;658921;-72
2024/01/08 06:51:11;;;;;;;10.50;4.27;;;-10.00;99.90;;;;;;4446041;28;659932;-73
2024/01/08 06:53:58;;;;;;;6.97;2.93;;;-10.00;99.90;;;;;;4426425;28;658970;-73
2024/01/08 06:56:45;;;;;;;17.70;6.53;;;-9.90;99.90;;;;;;4445793;28;658230;-74
2024/01/08 06:59:32;;;;;;;20.33;7.68;;;-9.90;99.90;;;;;;4427542;28;658390;-72
2024/01/08 07:02:20;;;;;;;8.10;3.17;;;-9.90;99.90;;;;;;4451934;28;658181;-74
2024/01/08 07:05:08;;;;;;;10.63;4.93;;;-9.90;99.90;;;;;;4442788;28;656860;-73
2024/01/08 07:07:59;;;;;;;19.83;6.80;;;-9.90;99.90;;;;;;4445543;28;657785;-73
2024/01/08 07:10:47;;;;;;;24.70;6.83;;;-9.90;99.90;;;;;;4420458;28;657951;-73
2024/01/08 07:13:34;;;;;;;19.13;7.30;;;-9.90;99.90;;;;;;4421283;28;658600;-73
2024/01/08 07:16:21;;;;;;;19.50;5.93;;;-9.90;99.90;;;;;;4446816;28;658475;-74
2024/01/08 07:19:09;;;;;;;13.27;5.03;;;-9.80;99.90;;;;;;4425758;28;657692;-73
2024/01/08 07:21:56;;;;;;;15.30;6.10;;;-9.80;99.90;;;;;;4448684;28;658294;-73
2024/01/08 07:24:45;;;;;;;14.37;5.47;;;-9.70;99.90;;;;;;4426848;28;657974;-72
2024/01/08 07:27:32;;;;;;;7.83;3.10;;;-9.60;99.90;;;;;;4423358;28;657816;-73
2024/01/08 07:30:20;;;;;;;17.13;6.70;;;-9.60;99.90;;;;;;4443013;28;656071;-72
2024/01/08 07:33:07;;;;;;;22.65;7.45;;;-9.60;99.90;;;;;;4430826;28;658140;-73
2024/01/08 07:35:55;;;;;;;24.43;8.80;;;-9.60;99.90;;;;;;4447156;28;659020;-73
2024/01/08 07:38:42;;;;;;;21.27;7.37;;;-9.50;99.90;;;;;;4440958;28;658569;-73
2024/01/08 07:41:30;;;;;;;19.37;7.60;;;-9.40;99.90;;;;;;4427217;28;657723;-73
2024/01/08 07:44:17;;;;;;;15.70;5.03;;;-9.40;99.90;;;;;;4427826;28;657759;-73
2024/01/08 07:47:05;;;;;;;21.27;7.13;;;-9.50;99.90;;;;;;4447808;28;658064;-73
2024/01/08 07:49:52;;;;;;;17.20;5.63;;;-9.30;99.90;;;;;;4436689;28;657808;-73
2024/01/08 07:52:40;;;;;;;26.77;7.70;;;-9.30;99.90;;;;;;4451774;28;657945;-73
2024/01/08 07:55:27;;;;;;;23.93;7.87;;;-9.20;99.90;;;;;;4437565;28;658029;-73
2024/01/08 07:58:17;;;;;;;20.67;7.70;;;-9.20;99.90;;;;;;4433469;28;657946;-74
2024/01/08 08:01:04;;;;;;;22.33;7.10;;;-9.10;99.90;;;;;;4427087;28;658889;-74
2024/01/08 08:03:51;;;;;;;12.77;4.03;;;-9.00;99.90;;;;;;4443382;28;657893;-73
2024/01/08 08:06:38;;;;;;;20.73;8.73;;;-9.00;99.90;;;;;;4419108;28;658202;-74
2024/01/08 08:09:26;;;;;;;20.87;7.53;;;-9.00;99.90;;;;;;4442460;28;657974;-73
2024/01/08 08:12:13;;;;;;;27.67;5.83;;;-8.80;99.90;;;;;;4425725;28;658237;-73
2024/01/08 08:15:02;;;;;;;22.93;6.47;;;-8.80;99.90;;;;;;4444475;28;658296;-74
2024/01/08 08:17:50;;;;;;;25.57;7.53;;;-8.80;99.90;;;;;;4418915;28;658152;-73
2024/01/08 08:20:37;;;;;;;18.17;3.93;;;-8.70;99.90;;;;;;4437991;28;657944;-73
2024/01/08 08:23:25;;;;;;;12.80;3.77;;;-8.70;99.90;;;;;;4445234;28;658304;-73
2024/01/08 08:26:12;;;;;;;11.77;4.77;;;-8.60;99.90;;;;;;4439938;28;657761;-72
2024/01/08 08:29:00;;;;;;;15.73;6.10;;;-8.60;99.90;;;;;;4445238;28;658476;-73
2024/01/08 08:31:50;;;;;;;18.23;7.03;;;-8.40;99.90;;;;;;4429211;28;657452;-72
2024/01/08 08:34:38;;;;;;;23.27;6.63;;;-8.50;99.90;;;;;;4440791;28;657852;-73
2024/01/08 08:37:26;;;;;;;16.53;5.77;;;-8.30;99.90;;;;;;4442820;28;659121;-74
2024/01/08 08:40:13;;;;;;;15.60;7.07;;;-8.00;99.90;;;;;;4423960;28;657253;-73
2024/01/08 08:43:00;;;;;;;17.63;6.60;;;-7.90;99.90;;;;;;4435460;28;657632;-73
2024/01/08 08:45:48;;;;;;;18.37;7.50;;;-7.70;99.90;;;;;;4423999;28;658288;-73
2024/01/08 08:48:36;;;;;;;19.20;7.07;;;-7.70;99.90;;;;;;4444328;28;658150;-73
2024/01/08 08:51:23;;;;;;;18.92;6.82;;;-7.60;99.90;;;;;;4427203;28;657804;-73
2024/01/08 08:54:11;;;;;;;27.60;8.57;;;-7.60;99.90;;;;;;4437100;28;658896;-74
2024/01/08 08:56:58;;;;;;;16.50;5.83;;;-7.50;99.90;;;;;;4422151;28;657253;-72
2024/01/08 08:59:45;;;;;;;10.80;4.47;;;-7.30;99.90;;;;;;4444255;28;659238;-73
2024/01/08 09:02:32;;;;;;;21.85;7.75;;;-7.40;99.90;;;;;;4430117;28;657822;-73
2024/01/08 09:05:21;;;;;;;14.47;5.60;;;-7.20;99.90;;;;;;4439546;28;658704;-73
2024/01/08 09:08:08;;;;;;;16.00;5.07;;;-7.10;99.90;;;;;;4425559;28;657353;-73
2024/01/08 09:10:55;;;;;;;13.20;5.70;;;-7.30;99.90;;;;;;4445401;28;658464;-73
2024/01/08 09:13:43;;;;;;;20.87;7.10;;;-7.50;99.90;;;;;;4424929;28;657442;-74
2024/01/08 09:16:30;;;;;;;16.77;6.17;;;-7.40;99.90;;;;;;4447082;28;658759;-74
2024/01/08 09:19:18;;;;;;;29.67;6.67;;;-7.00;99.90;;;;;;4424302;28;657708;-73
2024/01/08 09:22:06;;;;;;;9.83;5.13;;;-7.10;99.90;;;;;;4445703;28;658114;-72
2024/01/08 09:24:53;;;;;;;13.53;4.63;;;-7.30;99.90;;;;;;4420681;28;657894;-74
2024/01/08 09:27:42;;;;;;;21.05;7.22;;;-7.10;99.90;;;;;;4445605;28;657917;-74
2024/01/08 09:30:29;;;;;;;15.10;5.90;;;-7.10;99.90;;;;;;4418652;28;658099;-73
2024/01/08 09:33:16;;;;;;;14.80;4.77;;;-6.90;99.90;;;;;;4440145;28;657668;-73
2024/01/08 09:36:04;;;;;;;18.40;5.93;;;-7.40;99.90;;;;;;4418662;28;657398;-73
2024/01/08 09:38:52;;;;;;;9.97;3.20;;;-7.40;99.90;;;;;;4445781;28;657272;-73
2024/01/08 09:41:40;;;;;;;13.23;4.10;;;-7.30;99.90;;;;;;4423694;28;657481;-74
2024/01/08 09:44:27;;;;;;;17.17;6.67;;;-7.30;99.90;;;;;;4447909;28;657721;-73
2024/01/08 09:47:14;;;;;;;20.17;6.57;;;-6.90;99.90;;;;;;4425809;28;659519;-74
2024/01/08 09:50:01;;;;;;;20.23;8.50;;;-6.60;99.90;;;;;;4439825;28;658422;-74
2024/01/08 09:52:48;;;;;;;15.97;6.30;;;-6.50;99.90;;;;;;4423793;28;658719;-74
2024/01/08 09:55:37;;;;;;;20.35;8.93;;;-6.10;99.90;;;;;;4444836;28;657670;-74
2024/01/08 09:58:25;;;;;;;24.50;9.00;;;-6.10;99.90;;;;;;4416344;28;658773;-74
2024/01/08 10:01:12;;;;;;;21.90;9.00;;;-6.00;99.90;;;;;;4421709;28;657485;-73
2024/01/08 10:04:00;;;;;;;20.60;7.67;;;-6.00;99.90;;;;;;4445297;28;658298;-73
2024/01/08 10:06:49;;;;;;;19.87;7.77;;;-6.00;99.90;;;;;;4429139;28;657533;-73
2024/01/08 10:09:36;;;;;;;22.00;7.10;;;-5.90;99.90;;;;;;4441051;28;657796;-74
2024/01/08 10:12:24;;;;;;;19.57;7.30;;;-6.20;99.90;;;;;;4426621;28;658318;-73
2024/01/08 10:15:18;;;;;;;22.50;7.73;;;-6.50;99.90;;;;;;4443520;28;659006;-73
2024/01/08 10:18:08;;;;;;;14.23;5.20;;;-6.60;99.90;;;;;;4418412;28;658373;-73
2024/01/08 10:21:09;;;;;;;19.23;7.90;;;-6.40;99.90;;;;;;4418396;28;658586;-73
2024/01/08 10:23:57;;;;;;;21.70;7.78;;;-6.70;99.90;;;;;;4413160;28;658548;-73
2024/01/08 10:26:44;;;;;;;19.75;7.78;;;-6.40;99.90;;;;;;4417874;28;659074;-73
2024/01/08 10:29:33;;;;;;;13.37;4.60;;;-6.40;99.90;;;;;;4439747;28;657861;-73
2024/01/08 10:32:20;;;;;;;12.57;4.63;;;-6.40;99.90;;;;;;4414610;28;658354;-74
2024/01/08 10:35:08;;;;;;;28.23;8.65;;;-6.40;99.90;;;;;;4426850;28;658530;-73
2024/01/08 10:37:56;;;;;;;20.30;6.63;;;-6.50;99.90;;;;;;4442834;28;657624;-73
2024/01/08 10:40:43;;;;;;;18.80;7.00;;;-6.20;99.90;;;;;;4418916;28;657963;-73
2024/01/08 10:43:30;;;;;;;22.57;7.70;;;-6.00;99.90;;;;;;4449558;28;658810;-73
2024/01/08 10:46:19;;;;;;;21.20;6.90;;;-6.00;99.90;;;;;;4424623;28;657784;-73
2024/01/08 10:49:06;;;;;;;13.77;5.07;;;-5.90;99.90;;;;;;4443584;28;657786;-74
2024/01/08 10:51:54;;;;;;;10.87;4.20;;;-6.40;99.90;;;;;;4425310;28;657281;-73
2024/01/08 10:54:44;;;;;;;18.83;6.27;;;-6.50;99.90;;;;;;4438940;28;657952;-73
2024/01/08 10:57:36;;;;;;;18.37;6.20;;;-6.50;99.90;;;;;;4418780;28;658123;-73
2024/01/08 11:00:23;;;;;;;26.93;8.93;;;-6.20;99.90;;;;;;4424150;28;657578;-73
2024/01/08 11:03:11;;;;;;;23.50;7.20;;;-6.30;99.90;;;;;;4442875;28;659406;-73
2024/01/08 11:06:01;;;;;;;23.37;7.90;;;-6.00;99.90;;;;;;4417481;28;657443;-73
2024/01/08 11:08:49;;;;;;;23.00;9.33;;;-5.60;99.90;;;;;;4420428;28;658230;-72
2024/01/08 11:11:38;;;;;;;20.43;7.83;;;-5.00;99.90;;;;;;4446109;28;657170;-73
2024/01/08 11:14:25;;;;;;;22.30;8.80;;;-5.20;99.90;;;;;;4419465;28;657629;-73
2024/01/08 11:17:13;;;;;;;26.77;8.40;;;-4.90;99.90;;;;;;4426896;28;658408;-72
2024/01/08 11:20:05;;;;;;;22.13;8.20;;;-5.00;99.90;;;;;;4441811;28;658564;-73
2024/01/08 11:22:54;;;;;;;27.40;9.57;;;-5.00;99.90;;;;;;4419484;28;657869;-72
2024/01/08 11:25:49;;;;;;;23.87;8.53;;;-4.80;99.90;;;;;;4434284;28;658661;-73
2024/01/08 11:28:41;;;;;;;20.60;7.30;;;-5.30;99.90;;;;;;4420585;28;657830;-73
2024/01/08 11:31:56;;;;;;;17.15;6.72;;;-5.30;99.90;;;;;;4393631;28;658974;-72
2024/01/08 11:35:01;;;;;;;22.13;8.23;;;-5.30;99.90;;;;;;4403194;28;657449;-72
2024/01/08 11:37:54;;;;;;;22.15;8.35;;;-4.40;99.90;;;;;;4418415;28;657805;-72
2024/01/08 11:40:41;;;;;;;20.00;8.57;;;-3.40;99.90;;;;;;4426254;28;657881;-73
2024/01/08 11:43:29;;;;;;;24.73;9.40;;;-2.10;86.40;;;;;;4425099;28;657959;-73
2024/01/08 11:46:17;;;;;;;27.07;8.50;;;-1.30;62.70;;;;;;4446937;28;657860;-72
2024/01/08 11:49:05;;;;;;;19.87;8.07;;;-2.00;63.20;;;;;;4423016;28;657692;-73
2024/01/08 11:51:55;;;;;;;26.50;9.80;;;-1.50;68.50;;;;;;4427356;28;657341;-72
2024/01/08 11:54:48;;;;;;;27.83;8.77;;;0.30;57.70;;;;;;4437565;28;658271;-73
2024/01/08 11:57:36;;;;;;;22.70;7.57;;;0.60;54.60;;;;;;4419678;28;657829;-71
2024/01/08 12:00:24;;;;;;;21.43;9.30;;;-0.30;53.10;;;;;;4431002;28;657190;-72
2024/01/08 12:03:12;;;;;;;23.83;9.63;;;-1.40;57.30;;;;;;4448124;28;658271;-73
2024/01/08 12:06:04;;;;;;;26.57;10.13;;;-1.60;56.30;;;;;;4414664;28;657642;-72
2024/01/08 12:08:52;;;;;;;18.37;7.03;;;-1.90;58.70;;;;;;4428122;28;658709;-73
2024/01/08 12:11:41;;;;;;;28.57;10.57;;;-2.00;57.10;;;;;;4425293;28;658659;-73
2024/01/08 12:14:28;;;;;;;23.40;10.10;;;-2.40;64.70;;;;;;4417171;28;658944;-73
2024/01/08 12:17:16;;;;;;;27.25;10.30;;;-1.50;60.60;;;;;;4446880;28;659668;-73
2024/01/08 12:20:06;;;;;;;22.43;9.77;;;-0.70;57.90;;;;;;4423932;28;658871;-73
2024/01/08 12:22:53;;;;;;;23.40;9.37;;;-0.30;56.20;;;;;;4418656;28;657225;-73
2024/01/08 12:25:40;;;;;;;28.37;10.53;;;0.50;51.50;;;;;;4441622;28;658740;-74
2024/01/08 12:28:29;;;;;;;16.63;7.20;;;1.10;52.60;;;;;;4432260;28;657948;-72
2024/01/08 12:31:18;;;;;;;22.63;8.60;;;0.20;49.60;;;;;;4448506;28;656595;-72
2024/01/08 12:34:05;;;;;;;22.57;9.47;;;-0.10;51.70;;;;;;4424532;28;657749;-72
2024/01/08 12:36:52;;;;;;;24.77;9.80;;;-0.30;51.00;;;;;;4425459;28;658034;-72
2024/01/08 12:39:40;;;;;;;15.53;7.47;;;0.00;50.90;;;;;;4445046;28;658613;-72
2024/01/08 12:42:27;;;;;;;23.13;9.50;;;0.30;50.00;;;;;;4438095;28;656928;-72
2024/01/08 12:45:16;;;;;;;26.77;10.17;;;-0.80;52.40;;;;;;4441503;28;658024;-72
2024/01/08 12:48:04;;;;;;;22.67;8.97;;;-0.40;53.20;;;;;;4423588;28;659467;-72
2024/01/08 12:50:51;;;;;;;30.13;9.70;;;0.20;50.30;;;;;;4438458;28;658270;-73
2024/01/08 12:53:38;;;;;;;26.17;11.30;;;-0.20;49.10;;;;;;4422147;28;656891;-72
2024/01/08 12:56:25;;;;;;;15.70;6.57;;;-0.70;49.60;;;;;;4434820;28;659107;-72
2024/01/08 12:59:14;;;;;;;24.93;9.47;;;-1.00;51.90;;;;;;4427184;28;658698;-72
2024/01/08 13:02:03;;;;;;;27.30;10.07;;;-2.20;54.80;;;;;;4442076;28;658047;-72
2024/01/08 13:04:50;;;;;;;22.30;6.83;;;-1.10;55.60;;;;;;4415142;28;659844;-71
2024/01/08 13:07:38;;;;;;;25.63;10.63;;;-0.70;53.10;;;;;;4426774;28;657802;-72
2024/01/08 13:10:25;;;;;;;22.53;9.83;;;-0.90;53.70;;;;;;4440015;28;659269;-72
2024/01/08 13:13:12;;;;;;;24.03;9.77;;;0.30;52.30;;;;;;4435278;28;657595;-72
2024/01/08 13:15:59;;;;;;;29.73;12.47;;;-0.90;51.10;;;;;;4442323;28;656834;-69
2024/01/08 13:18:48;;;;;;;9.13;3.30;;;-1.00;52.60;;;;;;4424863;28;658814;-73
2024/01/08 13:21:36;;;;;;;25.63;10.00;;;-0.60;52.60;;;;;;4403326;28;657945;-72
2024/01/08 13:24:25;;;;;;;22.77;9.47;;;-1.20;52.00;;;;;;4406968;28;659061;-73
2024/01/08 13:27:13;;;;;;;20.60;8.73;;;-1.80;53.60;;;;;;4399657;28;658194;-71
2024/01/08 13:30:00;;;;;;;25.97;7.43;;;-1.50;52.50;;;;;;4428956;28;658180;-71
2024/01/08 13:32:47;;;;;;;25.63;9.97;;;-2.00;54.40;;;;;;4401967;28;658194;-70
2024/01/08 13:35:36;;;;;;;11.73;5.10;;;-1.80;58.10;;;;;;4428303;28;658225;-70
2024/01/08 13:38:23;;;;;;;23.37;10.00;;;-2.00;54.90;;;;;;4395715;28;657986;-70
2024/01/08 13:41:10;;;;;;;18.53;6.03;;;-3.50;64.00;;;;;;4417683;28;659131;-71
2024/01/08 13:43:57;;;;;;;24.27;8.77;;;-2.30;60.90;;;;;;4403185;28;657808;-70
2024/01/08 13:46:45;;;;;;;22.43;8.90;;;-2.40;56.00;;;;;;4427374;28;658724;-71
2024/01/08 13:49:33;;;;;;;25.47;9.20;;;-2.70;57.40;;;;;;4418667;28;657530;-71
2024/01/08 13:52:22;;;;;;;24.17;8.97;;;-2.50;65.10;;;;;;4416086;28;659100;-71
2024/01/08 13:55:10;;;;;;;29.33;9.43;;;-3.20;66.10;;;;;;4399149;28;658394;-71
2024/01/08 13:57:58;;;;;;;27.67;9.90;;;-3.20;67.90;;;;;;4418704;28;658030;-71
2024/01/08 14:00:45;;;;;;;22.53;9.17;;;-2.70;59.60;;;;;;4441022;28;658894;-71
2024/01/08 14:03:32;;;;;;;25.63;8.97;;;-2.40;60.60;;;;;;4432221;28;657892;-70
2024/01/08 14:06:19;;;;;;;21.07;9.40;;;-2.70;54.90;;;;;;4447564;28;657440;-71
2024/01/08 14:09:08;;;;;;;27.03;10.13;;;-2.70;56.30;;;;;;4446637;28;658446;-71